Time;durP1;ratioP1;P1;durP2;ratioP2;P2;SDS_P1;SDS_P2;PMS_P1;PMS_P2;Temp;Humidity;BMP_temperature;BMP_pressure;BME280_temperature;BME280_humidity;BME280_pressure;Samples;Min_cycle;Max_cycle;Signal;HPM_P1;HPM_P2
2022/04/02 00:02:24;;;;;;;4.30;2.00;;;;;;;8.03;75.23;98205.05;1671506;85;21054;-53
2022/04/02 00:04:51;;;;;;;4.45;2.22;;;;;;;8.09;75.04;98210.97;1674515;85;21045;-53
2022/04/02 00:07:17;;;;;;;4.10;1.80;;;;;;;8.13;74.71;98226.19;1705234;83;21023;-54
2022/04/02 00:09:45;;;;;;;4.95;2.37;;;;;;;8.20;74.61;98235.53;1697669;84;21084;-53
2022/04/02 00:12:12;;;;;;;5.83;2.30;;;;;;;8.24;74.53;98235.56;1705820;83;22002;-53
2022/04/02 00:14:39;;;;;;;5.62;2.22;;;;;;;8.25;74.59;98220.16;1704696;83;21009;-53
2022/04/02 00:17:07;;;;;;;4.80;1.82;;;;;;;8.29;74.24;98212.31;1706727;84;21076;-54
2022/04/02 00:19:36;;;;;;;7.92;2.20;;;;;;;8.31;73.88;98199.87;1700362;84;21040;-53
2022/04/02 00:22:04;;;;;;;4.80;2.15;;;;;;;8.27;73.65;98207.73;1700541;83;21248;-54
2022/04/02 00:24:32;;;;;;;6.15;2.45;;;;;;;8.25;73.48;98224.08;1694489;84;21081;-53
2022/04/02 00:26:59;;;;;;;4.78;1.87;;;;;;;8.24;73.48;98226.86;1707198;82;21045;-53
2022/04/02 00:29:27;;;;;;;5.12;2.42;;;;;;;8.20;73.67;98226.37;1710339;82;21568;-54
2022/04/02 00:31:54;;;;;;;5.90;2.55;;;;;;;8.17;73.49;98239.81;1725672;80;21098;-53
2022/04/02 00:34:22;;;;;;;6.17;2.05;;;;;;;8.12;73.47;98242.06;1741209;81;21139;-54
2022/04/02 00:36:50;;;;;;;6.42;2.58;;;;;;;8.12;73.62;98251.23;1730350;80;21043;-53
2022/04/02 00:39:16;;;;;;;7.05;2.62;;;;;;;8.13;73.85;98239.78;1727754;80;21054;-53
2022/04/02 00:41:43;;;;;;;4.90;2.50;;;;;;;8.17;73.66;98258.96;1730549;80;21061;-53
2022/04/02 00:44:12;;;;;;;6.60;2.52;;;;;;;8.16;73.77;98267.78;1724156;82;21130;-53
2022/04/02 00:46:41;;;;;;;6.42;2.95;;;;;;;8.11;74.00;98254.34;1653246;83;21110;-54
2022/04/02 00:49:11;;;;;;;6.60;3.20;;;;;;;8.14;74.09;98265.83;1728432;81;21473;-54
2022/04/02 00:51:42;;;;;;;5.35;2.20;;;;;;;8.13;74.12;98255.50;1731363;81;21121;-53
2022/04/02 00:54:12;;;;;;;5.47;2.75;;;;;;;8.11;73.68;98244.37;1728838;82;21044;-53
2022/04/02 00:56:40;;;;;;;4.72;2.08;;;;;;;8.11;73.68;98238.63;1725383;80;21501;-53
2022/04/02 00:59:08;;;;;;;5.55;2.37;;;;;;;8.10;73.67;98245.34;1730711;80;21090;-53
2022/04/02 01:01:37;;;;;;;7.95;2.87;;;;;;;8.09;73.71;98256.31;1726877;80;21008;-53
2022/04/02 01:04:06;;;;;;;6.25;2.50;;;;;;;8.06;73.93;98274.15;1725578;82;21109;-53
2022/04/02 01:06:36;;;;;;;5.17;2.77;;;;;;;8.05;74.09;98268.07;1726948;81;21038;-53
2022/04/02 01:09:04;;;;;;;6.47;3.05;;;;;;;8.08;74.18;98261.20;1728924;82;21156;-53
2022/04/02 01:11:37;;;;;;;5.87;2.70;;;;;;;8.06;73.96;98247.45;1711921;82;21144;-54
2022/04/02 01:14:07;;;;;;;5.83;3.02;;;;;;;8.00;73.75;98235.83;1724166;82;21364;-53
2022/04/02 01:16:35;;;;;;;6.92;3.22;;;;;;;7.98;73.72;98243.03;1726988;80;21062;-53
2022/04/02 01:19:05;;;;;;;5.62;2.62;;;;;;;7.97;73.83;98241.88;1732435;82;21530;-53
2022/04/02 01:21:32;;;;;;;6.08;2.90;;;;;;;7.95;73.76;98226.79;1692736;84;21061;-54
2022/04/02 01:24:01;;;;;;;6.72;3.12;;;;;;;7.90;73.97;98240.38;1727959;82;21231;-53
2022/04/02 01:26:28;;;;;;;6.62;3.20;;;;;;;7.85;73.83;98230.88;1731348;82;21057;-54
2022/04/02 01:28:59;;;;;;;6.03;3.20;;;;;;;7.79;73.58;98228.38;1729386;81;21046;-53
2022/04/02 01:31:27;;;;;;;7.15;3.47;;;;;;;7.77;73.57;98223.80;1735483;81;21361;-54
2022/04/02 01:33:55;;;;;;;8.78;3.50;;;;;;;7.72;73.56;98214.28;1740737;80;21523;-54
2022/04/02 01:36:24;;;;;;;5.40;2.60;;;;;;;7.65;73.65;98226.84;1741854;81;21789;-54
2022/04/02 01:38:55;;;;;;;5.90;2.85;;;;;;;7.60;73.82;98218.98;1734991;81;21046;-54
2022/04/02 01:41:24;;;;;;;5.80;2.92;;;;;;;7.58;73.81;98220.11;1742729;81;21021;-53
2022/04/02 01:43:50;;;;;;;7.08;3.08;;;;;;;7.58;73.88;98224.87;1740111;81;21086;-53
2022/04/02 01:46:17;;;;;;;6.90;2.10;;;;;;;7.62;74.00;98213.09;1709880;82;21021;-54
2022/04/02 01:48:46;;;;;;;6.47;2.37;;;;;;;7.64;74.03;98216.87;1708077;82;21190;-54
2022/04/02 01:51:13;;;;;;;4.55;2.00;;;;;;;7.60;74.00;98211.63;1704290;82;21035;-54
2022/04/02 01:53:39;;;;;;;3.95;1.50;;;;;;;7.51;74.01;98203.40;1685962;84;22464;-54
2022/04/02 01:56:09;;;;;;;5.55;1.62;;;;;;;7.48;74.08;98203.70;1712677;83;21056;-54
2022/04/02 01:58:42;;;;;;;5.78;1.90;;;;;;;7.48;74.05;98194.55;1715062;82;21044;-54
2022/04/02 02:01:10;;;;;;;5.20;1.87;;;;;;;7.50;74.11;98193.42;1707893;83;21343;-54
2022/04/02 02:03:39;;;;;;;4.55;1.55;;;;;;;7.51;74.11;98198.16;1705489;83;21047;-54
2022/04/02 02:06:06;;;;;;;5.35;2.10;;;;;;;7.47;74.01;98183.27;1705629;83;21057;-54
2022/04/02 02:08:34;;;;;;;3.83;1.50;;;;;;;7.39;73.93;98182.73;1693358;83;21051;-53
2022/04/02 02:11:03;;;;;;;5.03;1.77;;;;;;;7.30;74.23;98186.80;1693864;82;22293;-53
2022/04/02 02:13:42;;;;;;;4.35;1.47;;;;;;;7.25;74.37;98189.38;1689455;84;21195;-53
2022/04/02 02:16:10;;;;;;;4.17;1.82;;;;;;;7.32;74.32;98190.07;1704781;83;21055;-53
2022/04/02 02:18:37;;;;;;;5.10;1.65;;;;;;;7.33;74.28;98189.08;1701833;82;21016;-52
2022/04/02 02:21:04;;;;;;;3.47;1.02;;;;;;;7.31;74.34;98184.49;1707276;82;21058;-53
2022/04/02 02:23:31;;;;;;;4.62;1.75;;;;;;;7.29;74.21;98179.91;1682752;84;21030;-53
2022/04/02 02:25:58;;;;;;;4.65;1.72;;;;;;;7.22;74.28;98187.06;1688378;84;21568;-53
2022/04/02 02:28:27;;;;;;;3.60;1.40;;;;;;;7.22;74.36;98181.02;1686848;83;21083;-53
2022/04/02 02:30:55;;;;;;;3.80;1.47;;;;;;;7.27;74.15;98175.33;1681397;84;21005;-53
2022/04/02 02:35:55;;;;;;;4.25;1.65;;;;;;;7.25;74.11;98167.14;1647079;85;21066;-54
2022/04/02 02:38:42;;;;;;;4.35;1.70;;;;;;;7.18;74.13;98176.59;1712037;82;21652;-54
2022/04/02 02:41:11;;;;;;;4.78;1.72;;;;;;;7.15;74.37;98167.74;1697232;83;21158;-54
2022/04/02 02:43:39;;;;;;;4.05;1.77;;;;;;;7.13;74.31;98155.31;1681435;83;21039;-54
2022/04/02 02:46:08;;;;;;;6.72;1.47;;;;;;;7.15;74.26;98149.44;1699414;83;21119;-53
2022/04/02 02:48:36;;;;;;;3.52;1.40;;;;;;;7.17;74.21;98164.48;1701150;83;21128;-53
2022/04/02 02:51:03;;;;;;;4.62;1.55;;;;;;;7.20;74.19;98175.94;1713919;82;22304;-54
2022/04/02 02:53:31;;;;;;;5.00;1.72;;;;;;;7.22;74.32;98171.37;1695446;82;21143;-54
2022/04/02 02:55:58;;;;;;;4.97;1.87;;;;;;;7.24;74.15;98168.59;1667416;84;21085;-54
2022/04/02 02:58:26;;;;;;;4.95;1.80;;;;;;;7.21;74.04;98167.13;1690908;83;21533;-54
2022/04/02 03:00:54;;;;;;;5.75;2.05;;;;;;;7.20;73.96;98165.98;1692457;83;21534;-53
2022/04/02 03:03:23;;;;;;;4.17;1.57;;;;;;;7.18;73.86;98165.32;1676153;83;21209;-54
2022/04/02 03:05:52;;;;;;;5.00;2.00;;;;;;;7.23;73.71;98169.09;1675240;85;21047;-54
2022/04/02 03:08:20;;;;;;;4.85;1.75;;;;;;;7.30;73.72;98169.79;1674703;85;21093;-54
2022/04/02 03:10:50;;;;;;;5.15;2.20;;;;;;;7.32;73.54;98160.80;1703817;83;21080;-53
2022/04/02 03:13:18;;;;;;;4.08;1.80;;;;;;;7.30;73.42;98158.02;1695683;82;21077;-53
2022/04/02 03:15:45;;;;;;;5.20;2.17;;;;;;;7.29;73.41;98160.30;1694893;84;21155;-53
2022/04/02 03:18:13;;;;;;;5.10;1.82;;;;;;;7.25;73.40;98161.91;1691692;84;21559;-53
2022/04/02 03:20:41;;;;;;;4.50;1.25;;;;;;;7.22;73.36;98156.98;1673282;84;21067;-53
2022/04/02 03:23:10;;;;;;;5.10;2.00;;;;;;;7.24;73.21;98141.95;1715855;82;21637;-53
2022/04/02 03:27:25;;;;;;;4.90;1.67;;;;;;;7.22;73.27;98132.13;1786721;78;22608;-54
2022/04/02 03:29:52;;;;;;;5.28;1.98;;;;;;;7.16;73.18;98139.31;1762061;80;21032;-54
2022/04/02 03:32:20;;;;;;;5.75;1.92;;;;;;;7.13;73.28;98140.93;1769561;80;21301;-53
2022/04/02 03:34:46;;;;;;;5.15;1.92;;;;;;;7.07;73.20;98129.28;1757897;80;21004;-54
2022/04/02 03:37:16;;;;;;;5.83;2.30;;;;;;;6.98;73.28;98127.61;1765342;80;21085;-54
2022/04/02 03:39:42;;;;;;;5.03;1.87;;;;;;;6.97;73.50;98136.91;1769345;80;20995;-53
2022/04/02 03:42:09;;;;;;;7.00;2.40;;;;;;;7.01;73.44;98136.45;1730326;81;21595;-54
2022/04/02 03:44:37;;;;;;;5.78;1.85;;;;;;;7.06;73.36;98134.20;1718715;81;21205;-54
2022/04/02 03:47:08;;;;;;;6.33;2.30;;;;;;;7.06;73.33;98125.51;1714529;83;21058;-54
2022/04/02 03:49:41;;;;;;;6.72;2.47;;;;;;;7.01;73.30;98126.47;1694895;81;21019;-53
2022/04/02 03:52:10;;;;;;;4.87;1.85;;;;;;;6.94;73.29;98123.65;1729409;81;21118;-54
2022/04/02 03:54:39;;;;;;;6.58;2.45;;;;;;;6.90;73.41;98116.30;1713250;82;21501;-54
2022/04/02 03:57:07;;;;;;;6.33;2.25;;;;;;;6.91;73.44;98113.99;1717166;82;21373;-53
2022/04/02 03:59:35;;;;;;;5.12;2.33;;;;;;;6.87;73.40;98104.34;1709241;82;21077;-53
2022/04/02 04:02:07;;;;;;;9.58;2.30;;;;;;;6.83;73.64;98099.10;1714264;82;21075;-53
2022/04/02 04:04:34;;;;;;;7.78;2.80;;;;;;;6.78;73.70;98092.22;1712987;82;21066;-52
2022/04/02 04:07:04;;;;;;;12.10;2.98;;;;;;;6.69;73.79;98100.47;1708803;82;21125;-52
2022/04/02 04:09:32;;;;;;;4.75;2.37;;;;;;;6.66;73.84;98103.41;1711009;82;21153;-55
2022/04/02 04:11:59;;;;;;;6.08;2.30;;;;;;;6.69;74.00;98100.47;1704205;82;21544;-53
2022/04/02 04:14:29;;;;;;;6.97;3.15;;;;;;;6.70;74.09;98092.48;1707203;82;21149;-52
2022/04/02 04:16:58;;;;;;;7.20;2.98;;;;;;;6.72;74.18;98098.86;1710007;82;21042;-52
2022/04/02 04:19:24;;;;;;;8.45;2.50;;;;;;;6.73;74.31;98099.70;1711991;82;21070;-53
2022/04/02 04:21:51;;;;;;;10.30;2.85;;;;;;;6.72;74.41;98108.50;1707181;82;21082;-53
2022/04/02 04:24:19;;;;;;;6.78;2.70;;;;;;;6.77;74.45;98112.78;1716834;82;21047;-53
2022/04/02 04:26:47;;;;;;;6.87;2.33;;;;;;;6.88;74.26;98111.22;1696538;83;21448;-54
2022/04/02 04:29:14;;;;;;;8.23;2.92;;;;;;;6.96;74.01;98107.81;1760313;80;21042;-53
2022/04/02 04:31:42;;;;;;;5.92;2.40;;;;;;;6.99;73.78;98107.04;1752590;79;21082;-53
2022/04/02 04:34:09;;;;;;;6.58;2.75;;;;;;;6.98;73.83;98101.96;1757896;80;21149;-53
2022/04/02 04:36:37;;;;;;;8.48;3.27;;;;;;;6.99;73.81;98109.66;1749770;80;21027;-53
2022/04/02 04:39:06;;;;;;;7.03;3.30;;;;;;;6.96;73.65;98099.97;1756019;80;21056;-52
2022/04/02 04:41:38;;;;;;;6.60;3.10;;;;;;;6.91;73.58;98100.45;1760029;80;21036;-52
2022/04/02 04:44:05;;;;;;;8.95;3.37;;;;;;;6.87;73.69;98103.84;1699962;82;21056;-55
2022/04/02 04:46:34;;;;;;;12.00;3.67;;;;;;;6.92;73.50;98097.34;1687071;83;21122;-53
2022/04/02 04:49:01;;;;;;;10.93;4.17;;;;;;;6.90;73.35;98102.73;1694616;82;21068;-53
2022/04/02 04:51:29;;;;;;;14.28;3.77;;;;;;;6.90;73.35;98103.22;1750410;80;21048;-53
2022/04/02 04:53:58;;;;;;;9.48;3.30;;;;;;;6.86;73.54;98100.91;1755535;80;21023;-53
2022/04/02 04:56:25;;;;;;;7.30;3.90;;;;;;;6.84;73.74;98109.88;1750994;80;21113;-53
2022/04/02 04:58:52;;;;;;;7.92;3.83;;;;;;;6.86;74.02;98107.95;1756968;80;21154;-53
2022/04/02 05:01:22;;;;;;;11.60;4.15;;;;;;;6.86;73.85;98100.91;1698214;83;21073;-53
2022/04/02 05:03:49;;;;;;;7.97;3.40;;;;;;;6.85;73.54;98101.88;1756296;80;21083;-53
2022/04/02 05:06:19;;;;;;;9.80;3.37;;;;;;;6.86;73.46;98106.14;1749750;80;21387;-53
2022/04/02 05:08:48;;;;;;;8.03;3.40;;;;;;;6.87;73.47;98116.10;1749469;79;21714;-54
2022/04/02 05:11:15;;;;;;;8.55;3.37;;;;;;;6.84;73.61;98104.64;1759901;80;21300;-53
2022/04/02 05:13:45;;;;;;;9.65;3.40;;;;;;;6.80;73.73;98108.06;1763587;80;21607;-54
2022/04/02 05:16:13;;;;;;;7.47;3.40;;;;;;;6.76;73.82;98109.82;1772690;80;20936;-53
2022/04/02 05:18:44;;;;;;;6.85;2.95;;;;;;;6.72;73.95;98111.12;1764617;79;22104;-54
2022/04/02 05:21:11;;;;;;;6.25;2.95;;;;;;;6.79;73.88;98101.67;1757654;80;21572;-55
2022/04/02 05:23:39;;;;;;;6.70;2.87;;;;;;;6.82;73.81;98098.27;1729142;82;21145;-54
2022/04/02 05:26:05;;;;;;;9.88;3.52;;;;;;;6.86;73.79;98095.69;1755228;80;21035;-55
2022/04/02 05:28:33;;;;;;;7.12;2.83;;;;;;;6.85;73.76;98088.00;1750744;80;21544;-54
2022/04/02 05:31:00;;;;;;;7.00;2.70;;;;;;;6.84;73.78;98095.03;1753255;80;21047;-52
2022/04/02 05:33:28;;;;;;;7.37;2.95;;;;;;;6.82;73.78;98093.03;1765129;80;21095;-54
2022/04/02 05:35:55;;;;;;;7.37;2.98;;;;;;;6.81;73.85;98083.57;1758812;80;21141;-52
2022/04/02 05:38:21;;;;;;;10.72;3.45;;;;;;;6.85;73.74;98090.61;1745178;80;21046;-54
2022/04/02 05:40:49;;;;;;;12.98;3.65;;;;;;;6.87;73.73;98100.42;1746059;79;21130;-52
2022/04/02 05:43:15;;;;;;;10.50;3.33;;;;;;;6.82;73.58;98093.03;1747829;80;21071;-52
2022/04/02 05:45:43;;;;;;;9.23;3.12;;;;;;;6.78;73.79;98089.10;1709263;82;21105;-52
2022/04/02 05:48:10;;;;;;;9.85;4.15;;;;;;;6.75;73.77;98090.72;1751660;80;21146;-55
2022/04/02 05:50:38;;;;;;;10.72;5.60;;;;;;;6.76;73.91;98091.06;1743898;80;21086;-55
2022/04/02 05:53:05;;;;;;;13.50;5.75;;;;;;;6.77;73.86;98091.38;1748892;80;21102;-55
2022/04/02 05:55:35;;;;;;;11.08;5.10;;;;;;;6.72;73.95;98086.28;1745095;80;21052;-52
2022/04/02 05:58:01;;;;;;;10.28;5.35;;;;;;;6.64;73.99;98086.58;1745656;80;21058;-53
2022/04/02 06:00:28;;;;;;;13.90;5.67;;;;;;;6.56;74.22;98085.22;1756897;80;21149;-53
2022/04/02 06:02:55;;;;;;;8.98;4.08;;;;;;;6.56;74.58;98082.61;1753037;80;21086;-53
2022/04/02 06:05:23;;;;;;;16.93;5.03;;;;;;;6.59;74.56;98084.08;1747014;80;21036;-53
2022/04/02 06:07:50;;;;;;;13.68;5.80;;;;;;;6.58;74.70;98085.07;1698196;83;21540;-53
2022/04/02 06:10:16;;;;;;;11.05;4.90;;;;;;;6.58;74.86;98089.80;1684205;83;21103;-53
2022/04/02 06:12:44;;;;;;;9.80;5.03;;;;;;;6.61;75.00;98086.88;1750732;80;21135;-53
2022/04/02 06:15:11;;;;;;;11.63;5.03;;;;;;;6.69;74.46;98097.86;1753765;80;21075;-53
2022/04/02 06:17:38;;;;;;;14.53;6.70;;;;;;;6.71;74.48;98094.63;1744463;80;21035;-52
2022/04/02 06:20:07;;;;;;;11.30;6.55;;;;;;;6.72;74.39;98108.50;1755560;80;21046;-53
2022/04/02 06:22:36;;;;;;;13.30;5.40;;;;;;;6.69;74.32;98105.23;1752084;80;21067;-52
2022/04/02 06:25:04;;;;;;;17.62;4.97;;;;;;;6.66;73.96;98105.53;1756688;80;21239;-53
2022/04/02 06:27:31;;;;;;;10.78;4.50;;;;;;;6.67;73.93;98112.41;1753424;80;21451;-53
2022/04/02 06:29:58;;;;;;;9.68;4.87;;;;;;;6.68;73.98;98110.11;1758459;80;21105;-53
2022/04/02 06:32:25;;;;;;;10.70;4.95;;;;;;;6.69;74.17;98116.15;1765225;80;21540;-53
2022/04/02 06:34:53;;;;;;;10.95;4.33;;;;;;;6.67;74.28;98112.41;1763571;80;21027;-52
2022/04/02 06:37:20;;;;;;;9.78;4.05;;;;;;;6.73;74.09;98110.97;1759570;80;21161;-52
2022/04/02 06:39:47;;;;;;;9.25;4.45;;;;;;;6.76;73.52;98101.98;1767040;80;21034;-52
2022/04/02 06:42:14;;;;;;;10.18;4.10;;;;;;;6.76;73.44;98105.44;1757394;80;21079;-52
2022/04/02 06:44:43;;;;;;;12.20;4.40;;;;;;;6.72;73.51;98103.28;1704846;83;21076;-52
2022/04/02 06:47:09;;;;;;;10.68;4.90;;;;;;;6.69;73.70;98093.94;1759101;80;22448;-54
2022/04/02 06:49:36;;;;;;;10.15;4.42;;;;;;;6.70;73.83;98104.23;1754401;80;21269;-54
2022/04/02 06:52:04;;;;;;;8.75;3.72;;;;;;;6.75;73.48;98101.66;1759129;80;21564;-53
2022/04/02 06:54:33;;;;;;;8.15;3.58;;;;;;;6.70;73.31;98103.42;1735279;82;21027;-53
2022/04/02 06:57:00;;;;;;;6.80;3.50;;;;;;;6.63;73.58;98106.33;1760438;80;21074;-52
2022/04/02 06:59:26;;;;;;;9.33;3.42;;;;;;;6.54;73.29;98108.55;1759474;79;21075;-52
2022/04/02 07:01:53;;;;;;;10.10;3.27;;;;;;;6.48;73.50;98102.95;1703445;82;21148;-52
2022/04/02 07:04:19;;;;;;;12.58;3.15;;;;;;;6.45;73.58;98104.56;1762457;80;21058;-53
2022/04/02 07:06:46;;;;;;;7.40;3.20;;;;;;;6.38;73.83;98104.03;1761245;80;21113;-53
2022/04/02 07:09:14;;;;;;;8.20;3.47;;;;;;;6.32;74.15;98107.59;1775560;80;21011;-53
2022/04/02 07:11:43;;;;;;;8.28;3.10;;;;;;;6.31;74.26;98095.48;1768612;80;21007;-53
2022/04/02 07:14:11;;;;;;;7.05;2.83;;;;;;;6.30;74.21;98078.20;1773990;80;21250;-52
2022/04/02 07:16:39;;;;;;;14.38;4.08;;;;;;;6.25;74.47;98086.95;1759961;80;21051;-52
2022/04/02 07:19:06;;;;;;;12.37;3.80;;;;;;;6.22;74.60;98083.82;1763175;79;21419;-52
2022/04/02 07:21:34;;;;;;;6.95;3.30;;;;;;;6.18;74.76;98087.72;1754316;80;21038;-53
2022/04/02 07:24:01;;;;;;;7.35;4.00;;;;;;;6.19;74.70;98087.57;1756381;80;21089;-54
2022/04/02 07:26:33;;;;;;;8.55;4.20;;;;;;;6.19;74.71;98091.48;1757391;80;21586;-54
2022/04/02 07:29:00;;;;;;;8.98;4.47;;;;;;;6.16;74.66;98097.50;1758551;80;21090;-53
2022/04/02 07:31:26;;;;;;;8.08;3.65;;;;;;;6.11;74.82;98105.78;1761726;80;20996;-53
2022/04/02 07:33:53;;;;;;;7.00;3.42;;;;;;;6.12;74.77;98112.16;1751611;80;21099;-54
2022/04/02 07:36:47;;;;;;;8.18;3.92;;;;;;;6.19;74.63;98114.17;1753775;80;21095;-53
2022/04/02 07:39:17;;;;;;;7.08;2.90;;;;;;;6.23;74.85;98120.23;1756863;80;21219;-53
2022/04/02 07:42:10;;;;;;;10.60;3.77;;;;;;;6.29;74.89;98127.97;1757773;79;21047;-52
2022/04/02 07:45:06;;;;;;;8.28;3.08;;;;;;;6.31;74.77;98139.08;1772737;80;21059;-52
2022/04/02 07:47:37;;;;;;;6.60;2.75;;;;;;;6.36;74.63;98143.86;1764146;80;21095;-52
2022/04/02 07:50:13;;;;;;;6.28;2.60;;;;;;;6.48;74.39;98146.06;1718418;82;21055;-53
2022/04/02 07:52:45;;;;;;;7.90;3.67;;;;;;;6.54;73.84;98141.20;1757547;80;21177;-53
2022/04/02 07:55:12;;;;;;;9.13;3.67;;;;;;;6.50;73.34;98140.69;1762368;80;21468;-53
2022/04/02 07:57:52;;;;;;;6.45;2.72;;;;;;;6.38;73.49;98130.16;1760767;80;21011;-53
2022/04/02 08:00:22;;;;;;;11.12;3.42;;;;;;;6.29;73.94;98128.78;1762139;80;21012;-53
2022/04/02 08:02:50;;;;;;;9.18;2.90;;;;;;;6.26;73.97;98120.43;1758783;80;21047;-54
2022/04/02 08:05:20;;;;;;;6.60;3.12;;;;;;;6.19;74.48;98118.91;1771706;80;21126;-53
2022/04/02 08:07:50;;;;;;;9.85;3.52;;;;;;;6.10;74.60;98116.72;1760316;80;21039;-53
2022/04/02 08:10:19;;;;;;;12.40;3.35;;;;;;;6.06;75.01;98104.10;1759722;80;21595;-53
2022/04/02 08:12:49;;;;;;;9.48;2.70;;;;;;;6.06;75.15;98104.10;1766253;80;21042;-53
2022/04/02 08:15:20;;;;;;;9.10;3.42;;;;;;;6.03;75.11;98105.20;1775703;80;21055;-53
2022/04/02 08:17:52;;;;;;;7.12;2.47;;;;;;;6.02;75.37;98108.81;1778070;80;21086;-53
2022/04/02 08:20:18;;;;;;;8.08;3.12;;;;;;;6.03;75.17;98122.17;1780123;80;21042;-53
2022/04/02 08:22:45;;;;;;;9.20;2.90;;;;;;;6.09;75.09;98124.70;1764231;79;21500;-53
2022/04/02 08:25:12;;;;;;;8.70;2.83;;;;;;;6.12;74.85;98123.91;1726166;82;21050;-53
2022/04/02 08:28:08;;;;;;;9.18;3.00;;;;;;;6.08;74.83;98116.02;1755850;80;21071;-53
2022/04/02 08:30:57;;;;;;;8.23;2.98;;;;;;;6.06;75.09;98120.58;1741034;81;21391;-54
2022/04/02 08:33:46;;;;;;;7.95;2.85;;;;;;;6.09;75.31;98123.39;1737626;80;21099;-52
2022/04/02 08:36:32;;;;;;;6.45;3.25;;;;;;;6.17;75.39;98125.23;1732212;80;21148;-54
2022/04/02 08:39:17;;;;;;;8.88;3.05;;;;;;;6.24;75.08;98131.52;1759399;80;21087;-54
2022/04/02 08:42:09;;;;;;;7.05;2.75;;;;;;;6.28;75.24;98134.15;1764190;80;21040;-53
2022/04/02 08:45:13;;;;;;;6.78;2.70;;;;;;;6.27;74.83;98132.03;1753036;80;22329;-54
2022/04/02 08:48:25;;;;;;;8.35;3.17;;;;;;;6.24;74.60;98135.44;1737503;79;20978;-52
2022/04/02 08:51:17;;;;;;;8.43;3.37;;;;;;;6.28;74.77;98138.07;1706437;84;21775;-53
2022/04/02 08:54:03;;;;;;;8.95;3.35;;;;;;;6.28;74.31;98141.49;1760093;80;21024;-53
2022/04/02 08:56:29;;;;;;;10.40;3.30;;;;;;;6.24;74.28;98142.78;1673129;82;21032;-53
2022/04/02 08:59:01;;;;;;;8.85;2.52;;;;;;;6.16;74.42;98145.31;1695096;82;21123;-54
2022/04/02 09:01:41;;;;;;;7.92;2.90;;;;;;;6.16;74.53;98146.63;1753368;80;21004;-54
2022/04/02 09:04:27;;;;;;;6.47;2.75;;;;;;;6.22;74.53;98140.80;1761040;80;21187;-54
2022/04/02 09:07:11;;;;;;;9.00;3.05;;;;;;;6.29;74.47;98145.76;1750012;79;21067;-53
2022/04/02 09:10:07;;;;;;;7.55;2.70;;;;;;;6.31;74.51;98150.34;1756471;80;21552;-54
2022/04/02 09:13:12;;;;;;;10.82;3.27;;;;;;;6.34;74.39;98151.84;1771680;80;21541;-52
2022/04/02 09:16:06;;;;;;;8.45;3.17;;;;;;;6.39;74.14;98161.81;1772940;80;21047;-52
2022/04/02 09:19:09;;;;;;;8.73;3.50;;;;;;;6.45;73.90;98160.73;1757433;80;21107;-54
2022/04/02 09:21:59;;;;;;;8.83;3.77;;;;;;;6.45;73.82;98160.73;1742053;82;21196;-53
2022/04/02 09:24:54;;;;;;;8.78;3.10;;;;;;;6.41;73.91;98163.81;1767287;80;20976;-53
2022/04/02 09:28:15;;;;;;;7.60;3.17;;;;;;;6.35;73.87;98159.99;1764648;80;21142;-53
2022/04/02 09:30:50;;;;;;;8.03;3.37;;;;;;;6.41;73.85;98162.02;1729772;82;21627;-54
2022/04/02 09:33:50;;;;;;;;;;;;;;;6.42;74.05;98166.28;1727263;82;21604;-52
2022/04/02 09:37:05;;;;;;;6.75;2.90;;;;;;;6.44;74.16;98159.57;1738729;80;20193;-53
2022/04/02 09:39:59;;;;;;;7.75;3.08;;;;;;;6.39;74.45;98157.44;1711030;82;21042;-54
2022/04/02 09:42:37;;;;;;;6.67;3.08;;;;;;;6.45;74.20;98165.95;1724004;82;21214;-53
2022/04/02 09:45:09;;;;;;;11.20;3.95;;;;;;;6.54;73.94;98164.72;1737013;82;21082;-54
2022/04/02 09:48:14;;;;;;;7.12;3.35;;;;;;;6.60;73.86;98166.73;1721091;82;21036;-54
2022/04/02 09:50:41;;;;;;;10.05;3.98;;;;;;;6.65;73.93;98165.79;1725791;82;21024;-52
2022/04/02 09:53:20;;;;;;;9.23;3.77;;;;;;;6.68;73.85;98178.06;1736068;82;21501;-52
2022/04/02 09:56:11;;;;;;;8.53;3.60;;;;;;;6.73;73.64;98177.61;1717549;83;21086;-53
2022/04/02 09:59:08;;;;;;;7.47;2.87;;;;;;;6.81;73.42;98180.78;1730358;82;21070;-53
2022/04/02 10:02:05;;;;;;;13.78;5.28;;;;;;;6.86;73.25;98185.06;1716895;82;21106;-53
2022/04/02 10:04:45;;;;;;;18.80;6.12;;;;;;;6.84;73.02;98184.38;1699897;83;21054;-53
2022/04/02 10:07:42;;;;;;;21.12;8.40;;;;;;;6.68;73.06;98188.52;1731651;80;21043;-53
2022/04/02 10:10:08;;;;;;;16.42;7.00;;;;;;;6.57;73.26;98187.94;1697987;82;21960;-53
2022/04/02 10:12:37;;;;;;;20.95;7.53;;;;;;;6.57;73.68;98190.55;1736944;82;22175;-53
2022/04/02 10:15:06;;;;;;;14.75;8.25;;;;;;;6.64;73.56;98192.88;1708903;82;21017;-53
2022/04/02 10:17:32;;;;;;;25.85;9.58;;;;;;;6.73;73.07;98198.52;1736337;82;21662;-53
2022/04/02 10:19:59;;;;;;;16.87;9.33;;;;;;;6.79;73.01;98198.39;1697110;83;21091;-52
2022/04/02 10:22:39;;;;;;;18.40;8.08;;;;;;;6.80;73.13;98201.34;1669940;83;21164;-53
2022/04/02 10:25:09;;;;;;;13.72;6.92;;;;;;;6.78;73.40;98203.30;1730124;82;21540;-53
2022/04/02 10:27:42;;;;;;;10.78;5.62;;;;;;;6.79;73.00;98208.84;1724084;82;21058;-52
2022/04/02 10:30:15;;;;;;;13.45;6.40;;;;;;;6.81;72.72;98209.05;1757229;80;21610;-53
2022/04/02 10:32:53;;;;;;;13.03;6.28;;;;;;;6.78;72.60;98211.14;1750902;80;21125;-53
2022/04/02 10:35:24;;;;;;;13.38;5.45;;;;;;;6.74;73.02;98223.70;1742979;80;21153;-53
2022/04/02 10:38:10;;;;;;;12.43;5.50;;;;;;;6.74;72.96;98225.47;1748735;80;21048;-54
2022/04/02 10:40:46;;;;;;;9.93;4.92;;;;;;;6.73;72.92;98227.77;1749858;80;21536;-54
2022/04/02 10:43:24;;;;;;;9.18;5.03;;;;;;;6.64;72.75;98225.08;1737163;80;21034;-54
2022/04/02 10:45:50;;;;;;;9.43;4.72;;;;;;;6.56;72.75;98236.77;1674498;82;21127;-53
2022/04/02 10:48:47;;;;;;;10.65;5.20;;;;;;;6.55;72.88;98236.92;1750755;80;21140;-53
2022/04/02 10:51:14;;;;;;;9.80;5.30;;;;;;;6.61;72.83;98233.72;1753332;80;21548;-53
2022/04/02 10:53:43;;;;;;;10.23;5.17;;;;;;;6.70;72.88;98234.10;1752267;80;21064;-53
2022/04/02 10:56:17;;;;;;;9.70;5.40;;;;;;;6.74;72.87;98235.46;1749898;80;21031;-53
2022/04/02 10:58:51;;;;;;;9.98;4.33;;;;;;;6.71;72.69;98244.91;1757257;79;21627;-53
2022/04/02 11:01:19;;;;;;;7.03;3.98;;;;;;;6.64;72.61;98239.92;1752332;80;21842;-52
2022/04/02 11:03:55;;;;;;;8.85;4.53;;;;;;;6.66;72.65;98236.70;1748911;80;21011;-53
2022/04/02 11:06:44;;;;;;;10.40;4.60;;;;;;;6.79;72.41;98231.06;1753681;80;21015;-53
2022/04/02 11:09:39;;;;;;;9.88;4.35;;;;;;;6.88;71.87;98240.13;1752358;80;21064;-54
2022/04/02 11:12:15;;;;;;;9.23;4.30;;;;;;;6.84;71.96;98235.34;1746672;80;21048;-52
2022/04/02 11:14:49;;;;;;;7.60;3.27;;;;;;;6.82;72.19;98238.11;1753811;80;21254;-53
2022/04/02 11:17:34;;;;;;;6.70;3.27;;;;;;;6.78;71.80;98240.70;1750384;80;21950;-53
2022/04/02 11:20:25;;;;;;;6.12;3.05;;;;;;;6.68;71.65;98243.89;1747053;80;21072;-53
2022/04/02 11:23:02;;;;;;;6.10;2.60;;;;;;;6.70;71.93;98239.33;1756930;80;21050;-52
2022/04/02 11:25:35;;;;;;;4.40;1.77;;;;;;;6.74;71.52;98242.00;1751932;80;21066;-55
2022/04/02 11:28:15;;;;;;;6.45;2.60;;;;;;;6.74;71.43;98246.38;1754148;80;21179;-55
2022/04/02 11:30:53;;;;;;;7.05;2.40;;;;;;;6.70;71.04;98241.45;1716766;81;21098;-52
2022/04/02 11:33:24;;;;;;;7.05;2.17;;;;;;;6.67;71.07;98244.39;1750920;80;21071;-53
2022/04/02 11:35:58;;;;;;;5.67;2.20;;;;;;;6.68;70.86;98239.97;1748592;80;21087;-53
2022/04/02 11:38:39;;;;;;;6.58;2.55;;;;;;;6.68;70.90;98246.02;1751926;80;20980;-52
2022/04/02 11:41:22;;;;;;;6.47;2.00;;;;;;;6.72;70.74;98244.41;1747607;80;21220;-55
2022/04/02 11:43:52;;;;;;;5.87;1.98;;;;;;;6.80;70.70;98245.29;1755972;80;21074;-52
2022/04/02 11:46:21;;;;;;;4.80;1.42;;;;;;;6.80;70.69;98240.06;1747909;80;21089;-53
2022/04/02 11:48:55;;;;;;;4.42;1.55;;;;;;;6.84;70.34;98238.80;1751112;80;21082;-52
2022/04/02 11:51:30;;;;;;;3.60;1.37;;;;;;;6.81;70.22;98245.64;1751348;80;21536;-53
2022/04/02 11:54:10;;;;;;;5.47;1.80;;;;;;;6.80;70.48;98245.29;1681497;84;21167;-53
2022/04/02 11:56:47;;;;;;;4.78;2.08;;;;;;;6.84;70.82;98247.95;1691614;83;21062;-53
2022/04/02 11:59:16;;;;;;;4.17;1.70;;;;;;;6.94;70.71;98245.23;1755582;80;21517;-54
2022/04/02 12:01:49;;;;;;;5.78;1.30;;;;;;;7.11;70.20;98250.12;1758101;79;21051;-53
2022/04/02 12:04:18;;;;;;;3.55;1.02;;;;;;;7.21;70.07;98249.52;1757706;80;21591;-54
2022/04/02 12:06:48;;;;;;;3.62;1.10;;;;;;;7.20;69.41;98253.10;1757802;80;22128;-54
2022/04/02 12:09:23;;;;;;;3.58;1.22;;;;;;;7.18;69.30;98254.25;1755565;80;21106;-54
2022/04/02 12:12:00;;;;;;;4.30;1.37;;;;;;;7.18;69.38;98252.94;1751371;80;21063;-52